Vermilion, Canada
Current Conditions -  °F | °C
As of 1:00 AM on Tuesday 21 Oct 2014 (Local Time) from CYLL Reporting Station
Clear Clear  
Wind Chill: 50°   Ceiling: Unl
Heat Index: 50°   Visibility: 9mi
Dew Point: 34°   Wind: 14mph
Humidity: 54%   Direction: 190°S
Pressure: 29.51"   Gusts: NA
Location:  53.35°N, 110.86°W
Report Text: CYLL 210700Z AUTO 19012KT 9SM CLR 10/01 A2951 RMK SLP000 DENSITY ALT 2500FT
Loading
Personal Weather Stations






























Interactive Weather Map
Tropical Storm Tracking
New forecast layout! Learn more

10-Day Weather Forecast

Advertisements
Track Severe Weather on mobile